createdAt,value
2023-03-20T00:01:14.268Z,9.33
2023-03-20T00:03:42.873Z,9.50
2023-03-20T00:06:17.779Z,9.17
2023-03-20T00:08:49.213Z,8.53
2023-03-20T00:11:30.882Z,8.80
2023-03-20T00:14:02.381Z,8.97
2023-03-20T00:16:33.469Z,8.70
2023-03-20T00:19:03.314Z,7.87
2023-03-20T00:21:32.346Z,7.93
2023-03-20T00:24:02.276Z,9.17
2023-03-20T00:26:36.295Z,8.40
2023-03-20T00:29:06.661Z,9.07
2023-03-20T00:31:37.480Z,9.27
2023-03-20T00:34:08.201Z,8.27
2023-03-20T00:36:36.776Z,8.53
2023-03-20T00:39:07.152Z,8.17
2023-03-20T00:41:43.216Z,7.97
2023-03-20T00:44:24.362Z,8.17
2023-03-20T00:46:55.908Z,8.00
2023-03-20T00:49:29.022Z,7.87
2023-03-20T00:51:58.318Z,7.77
2023-03-20T00:54:29.490Z,8.30
2023-03-20T00:57:01.695Z,8.57
2023-03-20T00:59:34.600Z,8.97
2023-03-20T01:02:03.875Z,9.53
2023-03-20T01:04:37.876Z,8.43
2023-03-20T01:07:07.546Z,9.57
2023-03-20T01:09:39.123Z,10.07
2023-03-20T01:12:08.571Z,9.80
2023-03-20T01:14:37.036Z,10.17
2023-03-20T01:17:05.676Z,9.37
2023-03-20T01:19:34.266Z,9.20
2023-03-20T01:22:02.990Z,10.03
2023-03-20T01:24:31.511Z,10.37
2023-03-20T01:27:04.106Z,10.70
2023-03-20T01:29:33.190Z,11.37
2023-03-20T01:32:01.963Z,10.00
2023-03-20T01:34:31.416Z,10.47
2023-03-20T01:37:00.193Z,10.23
2023-03-20T01:39:34.010Z,9.53
2023-03-20T01:42:05.966Z,9.43
2023-03-20T01:44:37.698Z,10.00
2023-03-20T01:47:16.814Z,10.27
2023-03-20T01:50:22.397Z,9.87
2023-03-20T01:52:55.868Z,10.83
2023-03-20T01:55:24.890Z,10.70
2023-03-20T01:58:05.271Z,11.60
2023-03-20T02:00:36.685Z,12.17
2023-03-20T02:03:09.263Z,11.60
2023-03-20T02:05:57.098Z,12.93
2023-03-20T02:08:29.936Z,11.87
2023-03-20T02:11:03.678Z,11.63
2023-03-20T02:13:36.189Z,12.27
2023-03-20T02:16:07.554Z,11.80
2023-03-20T02:18:57.779Z,12.03
2023-03-20T02:22:06.094Z,12.13
2023-03-20T02:25:15.480Z,11.67
2023-03-20T02:28:11.256Z,11.83
2023-03-20T02:30:59.034Z,11.93
2023-03-20T02:34:00.586Z,12.40
2023-03-20T02:37:01.659Z,12.20
2023-03-20T02:39:53.759Z,12.70
2023-03-20T02:42:36.297Z,13.67
2023-03-20T02:45:15.586Z,13.23
2023-03-20T02:47:52.534Z,13.13
2023-03-20T02:50:33.892Z,13.07
2023-03-20T02:53:18.876Z,14.47
2023-03-20T02:55:55.874Z,13.93
2023-03-20T02:58:29.778Z,14.47
2023-03-20T03:01:03.692Z,14.87
2023-03-20T03:03:38.567Z,14.00
2023-03-20T03:06:12.409Z,15.77
2023-03-20T03:08:49.154Z,14.20
2023-03-20T03:11:19.358Z,13.93
2023-03-20T03:13:51.998Z,14.50
2023-03-20T03:16:26.446Z,16.30
2023-03-20T03:19:03.278Z,17.27
2023-03-20T03:21:33.640Z,17.97
2023-03-20T03:24:03.120Z,18.73
2023-03-20T03:26:37.205Z,18.90
2023-03-20T03:29:13.027Z,19.03
2023-03-20T03:31:44.147Z,18.03
2023-03-20T03:34:16.844Z,21.10
2023-03-20T03:36:52.927Z,18.10
2023-03-20T03:39:31.303Z,20.10
2023-03-20T03:42:09.097Z,19.03
2023-03-20T03:44:44.617Z,19.47
2023-03-20T03:47:17.226Z,20.57
2023-03-20T03:49:52.320Z,19.70
2023-03-20T03:52:24.924Z,19.80
2023-03-20T03:54:57.903Z,18.93
2023-03-20T03:57:38.423Z,19.60
2023-03-20T04:00:15.536Z,19.97
2023-03-20T04:02:48.145Z,19.00
2023-03-20T04:05:19.108Z,18.63
2023-03-20T04:07:48.993Z,16.60
2023-03-20T04:10:19.399Z,17.27
2023-03-20T04:12:49.878Z,16.50
2023-03-20T04:15:20.422Z,14.87
2023-03-20T04:17:49.313Z,14.00
2023-03-20T04:20:18.999Z,16.30
2023-03-20T04:22:49.007Z,15.07
2023-03-20T04:25:21.459Z,14.73
2023-03-20T04:27:54.765Z,14.10
2023-03-20T04:30:55.694Z,14.17
2023-03-20T04:33:50.498Z,13.57
2023-03-20T04:36:22.179Z,14.23
2023-03-20T04:38:55.188Z,13.23
2023-03-20T04:41:25.644Z,13.30
2023-03-20T04:43:58.579Z,11.53
2023-03-20T04:46:27.439Z,10.97
2023-03-20T04:48:56.533Z,12.57
2023-03-20T04:51:28.507Z,12.63
2023-03-20T04:53:57.092Z,12.37
2023-03-20T04:56:26.206Z,12.77
2023-03-20T04:59:01.267Z,12.00
2023-03-20T05:01:30.483Z,12.07
2023-03-20T05:04:01.242Z,13.77
2023-03-20T05:06:33.582Z,13.53
2023-03-20T05:09:02.708Z,12.60
2023-03-20T05:11:33.282Z,12.70
2023-03-20T05:14:23.860Z,12.13
2023-03-20T05:17:11.473Z,12.17
2023-03-20T05:20:00.276Z,12.43
2023-03-20T05:22:41.023Z,12.30
2023-03-20T05:25:14.309Z,12.93
2023-03-20T05:27:43.030Z,12.37
2023-03-20T05:30:36.911Z,11.83
2023-03-20T05:33:38.307Z,12.13
2023-03-20T05:36:22.902Z,11.13
2023-03-20T05:38:56.476Z,12.10
2023-03-20T05:41:45.745Z,11.83
2023-03-20T05:44:36.911Z,11.83
2023-03-20T05:47:32.928Z,11.23
2023-03-20T05:50:27.111Z,11.03
2023-03-20T05:53:22.032Z,11.10
2023-03-20T05:56:17.061Z,11.50
2023-03-20T05:59:12.682Z,11.07
2023-03-20T06:01:58.980Z,11.43
2023-03-20T06:04:33.042Z,11.83
2023-03-20T06:07:25.544Z,12.27
2023-03-20T06:10:08.841Z,11.97
2023-03-20T06:12:38.998Z,12.07
2023-03-20T06:15:08.892Z,12.73
2023-03-20T06:17:42.360Z,11.53
2023-03-20T06:20:17.244Z,12.07
2023-03-20T06:22:46.807Z,12.53
2023-03-20T06:25:17.640Z,12.37
2023-03-20T06:27:48.358Z,12.00
2023-03-20T06:30:17.902Z,12.73
2023-03-20T06:32:47.900Z,12.07
2023-03-20T06:35:20.118Z,11.67
2023-03-20T06:37:50.779Z,11.80
2023-03-20T06:40:24.266Z,12.27
2023-03-20T06:42:52.844Z,12.83
2023-03-20T06:45:23.091Z,13.30
2023-03-20T06:48:14.563Z,13.33
2023-03-20T06:50:44.479Z,13.17
2023-03-20T06:53:18.202Z,14.40
2023-03-20T06:55:54.920Z,12.33
2023-03-20T06:58:23.561Z,13.37
2023-03-20T07:00:54.747Z,14.60
2023-03-20T07:03:24.362Z,14.20
2023-03-20T07:05:55.075Z,13.57
2023-03-20T07:08:24.856Z,13.80
2023-03-20T07:10:53.557Z,13.67
2023-03-20T07:13:22.196Z,11.87
2023-03-20T07:16:03.676Z,12.50
2023-03-20T07:18:38.490Z,13.80
2023-03-20T07:21:09.491Z,11.97
2023-03-20T07:23:39.218Z,11.37
2023-03-20T07:26:08.724Z,11.23
2023-03-20T07:28:37.388Z,11.10
2023-03-20T07:31:22.098Z,11.37
2023-03-20T07:33:55.767Z,11.03
2023-03-20T07:36:26.223Z,10.70
2023-03-20T07:38:55.176Z,10.10
2023-03-20T07:41:23.926Z,8.77
2023-03-20T07:44:03.244Z,9.57
2023-03-20T07:46:48.945Z,9.97
2023-03-20T07:49:18.914Z,9.37
2023-03-20T07:51:51.182Z,8.63
2023-03-20T07:54:19.628Z,8.73
2023-03-20T07:56:48.328Z,11.50
2023-03-20T07:59:17.220Z,8.90
2023-03-20T08:01:45.601Z,8.40
2023-03-20T08:04:14.191Z,7.97
2023-03-20T08:06:43.723Z,8.37
2023-03-20T08:09:13.828Z,8.53
2023-03-20T08:11:42.472Z,8.50
2023-03-20T08:14:10.914Z,7.30
2023-03-20T08:16:39.368Z,7.67
2023-03-20T08:19:07.857Z,7.03
2023-03-20T08:21:36.668Z,6.63
2023-03-20T08:24:05.345Z,6.17
2023-03-20T08:26:35.414Z,7.60
2023-03-20T08:29:04.389Z,6.83
2023-03-20T08:31:33.166Z,6.90
2023-03-20T08:34:01.576Z,6.30
2023-03-20T08:36:30.075Z,7.37
2023-03-20T08:38:58.419Z,6.83
2023-03-20T08:41:27.063Z,6.97
2023-03-20T08:43:56.944Z,6.73
2023-03-20T08:46:25.743Z,6.60
2023-03-20T08:48:54.367Z,7.10
2023-03-20T08:51:22.949Z,6.43
2023-03-20T08:53:51.579Z,6.77
2023-03-20T08:56:20.050Z,6.83
2023-03-20T08:58:48.664Z,6.23
2023-03-20T09:01:19.419Z,7.10
2023-03-20T09:03:48.270Z,6.27
2023-03-20T09:06:17.088Z,6.77
2023-03-20T09:08:45.892Z,6.60
2023-03-20T09:11:14.596Z,6.00
2023-03-20T09:13:43.187Z,6.13
2023-03-20T09:16:14.757Z,7.13
2023-03-20T09:18:45.041Z,7.60
2023-03-20T09:21:13.662Z,6.43
2023-03-20T09:23:42.281Z,7.30
2023-03-20T09:26:14.666Z,6.70
2023-03-20T09:28:43.213Z,6.47
2023-03-20T09:31:12.196Z,5.77
2023-03-20T09:33:40.758Z,6.87
2023-03-20T09:36:11.978Z,6.00
2023-03-20T09:38:42.196Z,6.27
2023-03-20T09:41:21.784Z,6.13
2023-03-20T09:44:06.848Z,5.33
2023-03-20T09:46:51.587Z,5.57
2023-03-20T09:49:34.917Z,5.17
2023-03-20T09:52:17.765Z,5.57
2023-03-20T09:54:54.328Z,5.23
2023-03-20T09:57:27.260Z,5.90
2023-03-20T09:59:59.300Z,5.67
2023-03-20T10:02:40.797Z,5.20
2023-03-20T10:05:20.815Z,5.97
2023-03-20T10:07:51.557Z,4.73
2023-03-20T10:10:21.983Z,4.70
2023-03-20T10:13:09.443Z,4.33
2023-03-20T10:15:48.210Z,5.53
2023-03-20T10:18:24.181Z,4.00
2023-03-20T10:21:00.543Z,4.20
2023-03-20T10:23:37.118Z,5.10
2023-03-20T10:26:11.218Z,3.80
2023-03-20T10:28:47.493Z,3.97
2023-03-20T10:31:31.154Z,3.57
2023-03-20T10:34:10.406Z,4.07
2023-03-20T10:36:59.460Z,4.37
2023-03-20T10:39:46.506Z,5.50
2023-03-20T10:42:21.013Z,4.07
2023-03-20T10:44:55.108Z,4.23
2023-03-20T10:47:28.732Z,4.37
2023-03-20T10:50:01.648Z,3.80
2023-03-20T10:52:34.156Z,4.23
2023-03-20T10:55:08.267Z,3.83
2023-03-20T10:57:42.227Z,3.30
2023-03-20T11:00:19.986Z,3.03
2023-03-20T11:02:48.318Z,3.67
2023-03-20T11:05:25.855Z,3.90
2023-03-20T11:08:03.212Z,2.73
2023-03-20T11:10:35.866Z,2.93
2023-03-20T11:13:19.539Z,3.60
2023-03-20T11:15:48.104Z,3.97
2023-03-20T11:18:17.140Z,3.83
2023-03-20T11:20:48.001Z,3.70
2023-03-20T11:23:19.716Z,3.50
2023-03-20T11:25:53.861Z,3.87
2023-03-20T11:28:29.455Z,4.87
2023-03-20T11:31:05.415Z,4.00
2023-03-20T11:33:38.976Z,3.73
2023-03-20T11:36:13.901Z,4.37
2023-03-20T11:38:47.235Z,4.37
2023-03-20T11:41:24.115Z,4.67
2023-03-20T11:43:53.167Z,4.20
2023-03-20T11:46:23.704Z,4.33
2023-03-20T11:49:07.020Z,4.40
2023-03-20T11:51:38.222Z,3.63
2023-03-20T11:54:15.100Z,4.73
2023-03-20T11:56:53.589Z,4.10
2023-03-20T11:59:23.424Z,5.73
2023-03-20T12:01:55.845Z,4.80
2023-03-20T12:04:30.062Z,4.97
2023-03-20T12:07:04.016Z,4.77
2023-03-20T12:09:41.225Z,4.90
2023-03-20T12:12:26.280Z,4.40
2023-03-20T12:15:02.676Z,4.70
2023-03-20T12:17:36.931Z,4.70
2023-03-20T12:20:25.711Z,4.30
2023-03-20T12:23:04.021Z,4.47
2023-03-20T12:25:38.156Z,4.27
2023-03-20T12:28:15.681Z,3.90
2023-03-20T12:30:59.611Z,3.83
2023-03-20T12:33:39.735Z,3.83
2023-03-20T12:36:15.592Z,4.20
2023-03-20T12:38:46.340Z,3.77
2023-03-20T12:41:21.947Z,4.23
2023-03-20T12:44:35.298Z,4.70
2023-03-20T12:47:17.805Z,3.93
2023-03-20T12:49:55.990Z,4.17
2023-03-20T12:52:33.830Z,3.80
2023-03-20T12:55:22.598Z,4.40
2023-03-20T12:58:04.542Z,4.63
2023-03-20T13:00:39.381Z,4.40
2023-03-20T13:03:21.893Z,5.33
2023-03-20T13:05:56.082Z,4.90
2023-03-20T13:08:39.633Z,4.33
2023-03-20T13:11:17.264Z,5.07
2023-03-20T13:13:51.787Z,4.97
2023-03-20T13:16:29.899Z,4.93
2023-03-20T13:19:08.656Z,4.87
2023-03-20T13:21:44.119Z,5.00
2023-03-20T13:24:34.154Z,3.83
2023-03-20T13:27:15.113Z,4.37
2023-03-20T13:29:51.750Z,4.20
2023-03-20T13:32:30.612Z,5.10
2023-03-20T13:35:17.937Z,4.93
2023-03-20T13:37:53.130Z,5.13
2023-03-20T13:40:24.763Z,4.73
2023-03-20T13:42:58.936Z,5.10
2023-03-20T13:45:32.714Z,4.07
2023-03-20T13:48:06.738Z,5.20
2023-03-20T13:50:43.900Z,4.33
2023-03-20T13:53:26.064Z,5.03
2023-03-20T13:56:04.508Z,4.87
2023-03-20T13:59:03.277Z,5.00
2023-03-20T14:01:40.930Z,4.67
2023-03-20T14:04:14.979Z,5.43
2023-03-20T14:06:53.358Z,4.40
2023-03-20T14:09:27.785Z,5.37
2023-03-20T14:11:58.654Z,5.57
2023-03-20T14:14:30.961Z,4.87
2023-03-20T14:17:19.201Z,4.80
2023-03-20T14:19:49.944Z,5.67
2023-03-20T14:22:25.102Z,4.40
2023-03-20T14:25:00.048Z,4.87
2023-03-20T14:27:43.871Z,4.23
2023-03-20T14:30:39.666Z,4.77
2023-03-20T14:33:26.207Z,4.47
2023-03-20T14:36:13.861Z,4.43
2023-03-20T14:38:55.003Z,4.33
2023-03-20T14:41:30.092Z,5.10
2023-03-20T14:44:14.691Z,5.33
2023-03-20T14:46:52.624Z,4.87
2023-03-20T14:49:29.028Z,4.77
2023-03-20T14:52:10.654Z,4.57
2023-03-20T14:54:42.830Z,4.57
2023-03-20T14:57:18.782Z,4.93
2023-03-20T14:59:50.137Z,4.13
2023-03-20T15:02:28.550Z,4.47
2023-03-20T15:04:57.816Z,4.40
2023-03-20T15:07:29.718Z,4.67
2023-03-20T15:10:03.053Z,4.70
2023-03-20T15:12:37.300Z,4.37
2023-03-20T15:15:08.338Z,4.50
2023-03-20T15:17:39.559Z,4.53
2023-03-20T15:20:16.467Z,4.77
2023-03-20T15:22:52.693Z,5.13
2023-03-20T15:25:24.833Z,5.50
2023-03-20T15:27:53.502Z,4.97
2023-03-20T15:30:23.843Z,5.30
2023-03-20T15:32:56.043Z,4.67
2023-03-20T15:35:28.318Z,5.60
2023-03-20T15:37:59.793Z,5.13
2023-03-20T15:40:47.462Z,5.20
2023-03-20T15:43:20.671Z,5.60
2023-03-20T15:45:50.945Z,4.77
2023-03-20T15:48:21.273Z,4.67
2023-03-20T15:50:53.950Z,4.10
2023-03-20T15:53:29.377Z,4.50
2023-03-20T15:56:17.279Z,4.93
2023-03-20T15:58:47.637Z,4.13
2023-03-20T16:01:19.868Z,3.90
2023-03-20T16:03:49.605Z,3.83
2023-03-20T16:06:21.639Z,4.60
2023-03-20T16:08:59.624Z,4.23
2023-03-20T16:11:38.596Z,4.10
2023-03-20T16:14:09.215Z,4.13
2023-03-20T16:16:38.466Z,4.47
2023-03-20T16:19:08.169Z,4.40
2023-03-20T16:21:39.388Z,4.53
2023-03-20T16:24:12.495Z,4.37
2023-03-20T16:26:45.374Z,4.40
2023-03-20T16:29:16.504Z,4.00
2023-03-20T16:31:50.277Z,4.00
2023-03-20T16:34:22.627Z,4.20
2023-03-20T16:36:54.969Z,4.60
2023-03-20T16:39:26.271Z,4.73
2023-03-20T16:42:22.622Z,4.90
2023-03-20T16:44:55.674Z,4.00
2023-03-20T16:47:26.369Z,4.60
2023-03-20T16:50:23.191Z,4.77
2023-03-20T16:52:53.852Z,4.60
2023-03-20T16:55:29.455Z,4.23
2023-03-20T16:58:01.698Z,4.90
2023-03-20T17:00:33.078Z,3.63
2023-03-20T17:03:11.233Z,4.00
2023-03-20T17:05:50.927Z,4.73
2023-03-20T17:08:28.711Z,5.50
2023-03-20T17:11:01.019Z,5.17
2023-03-20T17:13:31.053Z,5.97
2023-03-20T17:16:00.421Z,4.53
2023-03-20T17:18:31.053Z,5.03
2023-03-20T17:20:59.419Z,4.50
2023-03-20T17:23:28.080Z,4.77
2023-03-20T17:25:56.515Z,5.93
2023-03-20T17:28:31.614Z,5.00
2023-03-20T17:31:05.297Z,7.73
2023-03-20T17:33:34.230Z,5.00
2023-03-20T17:36:02.749Z,3.90
2023-03-20T17:38:31.640Z,4.77
2023-03-20T17:41:00.295Z,5.93
2023-03-20T17:43:29.082Z,9.57
2023-03-20T17:45:57.632Z,5.17
2023-03-20T17:48:29.765Z,5.50
2023-03-20T17:51:01.681Z,3.90
2023-03-20T17:53:31.454Z,6.30
2023-03-20T17:55:59.961Z,4.50
2023-03-20T17:58:28.585Z,4.37
2023-03-20T18:01:00.037Z,4.20
2023-03-20T18:03:29.977Z,4.60
2023-03-20T18:05:58.607Z,4.20
2023-03-20T18:08:27.186Z,5.50
2023-03-20T18:10:56.922Z,4.23
2023-03-20T18:13:27.484Z,4.20
2023-03-20T18:15:58.505Z,5.40
2023-03-20T18:18:27.159Z,4.17
2023-03-20T18:20:57.585Z,5.03
2023-03-20T18:23:26.162Z,5.50
2023-03-20T18:25:54.934Z,4.53
2023-03-20T18:28:24.586Z,4.80
2023-03-20T18:30:53.075Z,4.70
2023-03-20T18:33:25.522Z,4.87
2023-03-20T18:35:54.680Z,5.20
2023-03-20T18:38:25.849Z,5.33
2023-03-20T18:40:54.756Z,5.60
2023-03-20T18:43:23.758Z,5.90
2023-03-20T18:45:52.386Z,5.73
2023-03-20T18:48:21.321Z,4.67
2023-03-20T18:50:51.149Z,5.43
2023-03-20T18:53:20.400Z,4.83
2023-03-20T18:55:50.199Z,5.57
2023-03-20T18:58:23.000Z,5.10
2023-03-20T19:00:53.607Z,5.70
2023-03-20T19:03:24.673Z,6.07
2023-03-20T19:05:54.141Z,5.60
2023-03-20T19:08:22.642Z,5.50
2023-03-20T19:10:52.648Z,5.50
2023-03-20T19:13:22.851Z,5.43
2023-03-20T19:15:51.462Z,5.10
2023-03-20T19:18:26.130Z,5.80
2023-03-20T19:20:56.668Z,5.97
2023-03-20T19:23:29.034Z,5.97
2023-03-20T19:25:59.220Z,5.60
2023-03-20T19:28:39.208Z,6.03
2023-03-20T19:31:11.019Z,6.23
2023-03-20T19:33:41.023Z,5.67
2023-03-20T19:36:17.849Z,5.07
2023-03-20T19:38:46.526Z,6.20
2023-03-20T19:41:16.844Z,5.30
2023-03-20T19:43:52.373Z,5.20
2023-03-20T19:46:39.261Z,5.77
2023-03-20T19:49:18.514Z,5.37
2023-03-20T19:51:48.068Z,6.07
2023-03-20T19:54:17.374Z,5.00
2023-03-20T19:56:47.579Z,6.00
2023-03-20T19:59:16.950Z,5.97
2023-03-20T20:01:47.022Z,5.13
2023-03-20T20:04:16.451Z,5.50
2023-03-20T20:06:47.524Z,5.50
2023-03-20T20:09:17.345Z,5.33
2023-03-20T20:11:47.489Z,5.90
2023-03-20T20:14:16.692Z,7.17
2023-03-20T20:16:46.070Z,6.07
2023-03-20T20:19:14.769Z,5.97
2023-03-20T20:24:32.835Z,6.30
2023-03-20T20:27:16.261Z,7.07
2023-03-20T20:29:49.345Z,6.63
2023-03-20T20:32:18.382Z,7.17
2023-03-20T20:38:21.224Z,6.87
2023-03-20T20:40:27.992Z,6.07
2023-03-20T20:43:01.825Z,6.67
2023-03-20T20:45:32.039Z,7.03
2023-03-20T20:48:02.050Z,6.53
2023-03-20T20:50:33.125Z,6.63
2023-03-20T20:53:01.690Z,7.27
2023-03-20T20:55:30.707Z,6.80
2023-03-20T20:58:01.420Z,6.57
2023-03-20T21:00:47.522Z,7.13
2023-03-20T21:03:18.669Z,6.97
2023-03-20T21:05:47.361Z,6.30
2023-03-20T21:08:18.600Z,6.27
2023-03-20T21:10:47.391Z,7.37
2023-03-20T21:13:20.078Z,6.23
2023-03-20T21:15:59.411Z,7.27
2023-03-20T21:18:28.258Z,6.53
2023-03-20T21:21:05.467Z,7.10
2023-03-20T21:23:34.353Z,7.43
2023-03-20T21:26:02.981Z,6.80
2023-03-20T21:28:33.365Z,7.67
2023-03-20T21:31:23.499Z,7.20
2023-03-20T21:33:53.594Z,7.33
2023-03-20T21:36:23.390Z,8.07
2023-03-20T21:39:09.316Z,7.20
2023-03-20T21:41:39.088Z,7.70
2023-03-20T21:44:16.623Z,8.37
2023-03-20T21:47:19.137Z,7.30
2023-03-20T21:53:00.397Z,7.60
2023-03-20T21:56:09.118Z,8.03
2023-03-20T21:58:44.481Z,9.10
2023-03-20T22:01:29.560Z,9.10
2023-03-20T22:04:31.953Z,7.47
2023-03-20T22:12:59.434Z,8.53
2023-03-20T22:15:38.867Z,8.17
2023-03-20T22:27:12.997Z,8.53
2023-03-20T22:38:12.734Z,8.60
2023-03-20T22:46:09.946Z,8.80
2023-03-20T22:48:41.385Z,9.43
2023-03-20T22:51:12.639Z,9.40
2023-03-20T22:53:41.125Z,10.53
2023-03-20T22:56:11.401Z,10.17
2023-03-20T22:58:39.775Z,10.13
2023-03-20T23:01:10.044Z,9.33
2023-03-20T23:03:41.928Z,10.47
2023-03-20T23:06:19.157Z,9.90
2023-03-20T23:08:52.229Z,9.00
2023-03-20T23:11:24.640Z,8.67
2023-03-20T23:13:54.186Z,9.33
2023-03-20T23:16:23.184Z,9.83
2023-03-20T23:18:51.920Z,8.70
2023-03-20T23:21:22.138Z,9.93
2023-03-20T23:23:50.718Z,8.97
2023-03-20T23:26:22.056Z,8.50
2023-03-20T23:28:53.545Z,8.27
2023-03-20T23:31:23.901Z,8.57
2023-03-20T23:33:54.802Z,7.80
2023-03-20T23:36:36.019Z,7.60
2023-03-20T23:39:05.838Z,6.97
2023-03-20T23:44:23.103Z,7.40
2023-03-20T23:46:51.579Z,7.20
2023-03-20T23:49:20.151Z,8.30
2023-03-20T23:51:50.042Z,7.70
2023-03-20T23:54:18.365Z,6.70
2023-03-20T23:56:49.398Z,7.83
2023-03-20T23:59:21.988Z,6.73
